| time (UTC) | temp C | wind direction | speed KPH | gust KPH | rain 1hr cm | rain 24hr cm | rain mn cm | humidity % | barometer mb |
| 20260905222724 | 12 | 264 | 9.7 | 17.7 | 0.00 | 0.51 | 0.00 | 88 | 1012.0 |
| 20260905221223 | 12 | 216 | 11.3 | 17.7 | 0.00 | 0.51 | 0.00 | 87 | 1012.0 |
| 20260905215723 | 13 | 264 | 11.3 | 17.7 | 0.00 | 0.51 | 0.00 | 87 | 1011.8 |
| 20260905214222 | 13 | 252 | 11.3 | 20.9 | 0.00 | 0.51 | 0.00 | 87 | 1011.8 |
| 20260905212721 | 12 | 263 | 9.7 | 17.7 | 0.00 | 0.51 | 0.00 | 87 | 1011.6 |
| 20260905211219 | 12 | 253 | 9.7 | 16.1 | 0.00 | 0.51 | 0.00 | 87 | 1011.6 |
| 20260905205718 | 12 | 258 | 9.7 | 17.7 | 0.00 | 0.51 | 0.00 | 87 | 1011.4 |
| 20260905204217 | 12 | 234 | 9.7 | 16.1 | 0.00 | 0.51 | 0.00 | 87 | 1011.4 |
| 20260905202716 | 12 | 264 | 8.0 | 16.1 | 0.00 | 0.51 | 0.00 | 88 | 1011.2 |
| 20260905201215 | 12 | 270 | 8.0 | 12.9 | 0.00 | 0.51 | 0.00 | 89 | 1011.1 |
| 20260905195714 | 13 | 240 | 8.0 | 12.9 | 0.00 | 0.51 | 0.00 | 88 | 1011.0 |
| 20260905194213 | 13 | 252 | 8.0 | 14.5 | 0.00 | 0.51 | 0.00 | 88 | 1010.9 |
| 20260905192712 | 13 | 276 | 6.4 | 12.9 | 0.00 | 0.51 | 0.00 | 87 | 1010.8 |
| 20260905191211 | 13 | 228 | 6.4 | 9.7 | 0.00 | 0.51 | 0.00 | 86 | 1010.8 |
| 20260905185710 | 13 | 228 | 4.8 | 8.0 | 0.00 | 0.51 | 0.00 | 84 | 1010.7 |
| 20260905184209 | 13 | 252 | 6.4 | 9.7 | 0.00 | 0.51 | 0.00 | 83 | 1010.6 |
| 20260905182708 | 13 | 253 | 8.0 | 16.1 | 0.00 | 0.51 | 0.00 | 82 | 1010.5 |
| 20260905181207 | 13 | 234 | 6.4 | 12.9 | 0.00 | 0.51 | 0.00 | 83 | 1010.3 |
| 20260905175706 | 13 | 270 | 6.4 | 9.7 | 0.00 | 0.51 | 0.00 | 84 | 1010.1 |
| 20260905174205 | 13 | 252 | 6.4 | 12.9 | 0.00 | 0.51 | 0.00 | 83 | 1009.9 |
| 20260905172704 | 13 | 306 | 6.4 | 11.3 | 0.00 | 0.51 | 0.00 | 83 | 1009.7 |
| 20260905171202 | 13 | 240 | 6.4 | 14.5 | 0.00 | 0.51 | 0.00 | 84 | 1009.7 |
| 20260905165702 | 14 | 263 | 8.0 | 16.1 | 0.00 | 0.51 | 0.00 | 82 | 1009.7 |
| 20260905164201 | 14 | 246 | 9.7 | 19.3 | 0.13 | 0.51 | 0.00 | 83 | 1009.5 |
| 20260905162659 | 14 | 270 | 8.0 | 16.1 | 0.13 | 0.53 | 0.00 | 83 | 1009.4 |
| 20260905161158 | 15 | 252 | 16.1 | 37.0 | 0.13 | 0.53 | 0.00 | 85 | 1009.1 |
| 20260905155658 | 15 | 262 | 17.7 | 41.8 | 0.13 | 0.84 | 0.00 | 85 | 1008.8 |
| 20260905154156 | 17 | 240 | 11.3 | 22.5 | 0.00 | 0.71 | 0.00 | 73 | 1008.2 |
| 20260905152655 | 17 | 221 | 14.5 | 22.5 | 0.00 | 0.71 | 0.00 | 70 | 1008.2 |
| 20260905151154 | 17 | 222 | 11.3 | 19.3 | 0.00 | 0.71 | 0.00 | 71 | 1008.4 |
| 20260905145653 | 16 | 210 | 11.3 | 20.9 | 0.00 | 0.71 | 0.00 | 72 | 1008.4 |
| 20260905144152 | 17 | 258 | 12.9 | 24.1 | 0.00 | 0.71 | 0.00 | 71 | 1008.4 |
| 20260905142650 | 17 | 230 | 14.5 | 27.4 | 0.00 | 0.71 | 0.00 | 68 | 1008.3 |
| 20260905141149 | 18 | 252 | 12.9 | 20.9 | 0.00 | 0.71 | 0.00 | 65 | 1008.2 |
| 20260905135649 | 17 | 210 | 12.9 | 24.1 | 0.00 | 0.71 | 0.00 | 64 | 1008.5 |
| 20260905134147 | 17 | 203 | 19.3 | 33.8 | 0.00 | 0.71 | 0.00 | 64 | 1008.4 |
| 20260905132646 | 18 | 226 | 17.7 | 35.4 | 0.00 | 0.71 | 0.00 | 61 | 1008.3 |
| 20260905131145 | 18 | 275 | 19.3 | 33.8 | 0.00 | 0.71 | 0.00 | 60 | 1008.4 |
| 20260905125644 | 18 | 264 | 19.3 | 33.8 | 0.00 | 0.71 | 0.00 | 65 | 1008.2 |
| 20260905124142 | 18 | 266 | 17.7 | 37.0 | 0.00 | 0.71 | 0.00 | 67 | 1008.2 |
| 20260905122641 | 18 | 264 | 14.5 | 30.6 | 0.00 | 0.71 | 0.00 | 71 | 1008.2 |
| 20260905121140 | 17 | 262 | 11.3 | 20.9 | 0.23 | 0.71 | 0.00 | 71 | 1008.1 |
| 20260905115639 | 16 | 252 | 14.5 | 32.2 | 0.23 | 0.71 | 0.00 | 77 | 1008.3 |
| 20260905114139 | 16 | 240 | 9.7 | 19.3 | 0.23 | 0.71 | 0.00 | 81 | 1007.8 |
| 20260905112638 | 15 | 240 | 12.9 | 32.2 | 0.23 | 0.71 | 0.00 | 84 | 1008.0 |
| 20260905111137 | 18 | 222 | 14.5 | 25.7 | 0.00 | 0.48 | 0.00 | 67 | 1007.6 |
| 20260905105636 | 18 | 258 | 14.5 | 30.6 | 0.00 | 0.48 | 0.00 | 64 | 1008.0 |
| 20260905104135 | 18 | 246 | 16.1 | 24.1 | 0.00 | 0.48 | 0.00 | 63 | 1008.0 |
| 20260905102634 | 18 | 255 | 16.1 | 24.1 | 0.00 | 0.53 | 0.00 | 63 | 1007.9 |
| 20260905101133 | 18 | 249 | 14.5 | 27.4 | 0.00 | 0.53 | 0.00 | 64 | 1007.9 |
| 20260905095631 | 18 | 280 | 14.5 | 27.4 | 0.00 | 0.53 | 0.00 | 65 | 1007.9 |
| 20260905094131 | 17 | 260 | 16.1 | 32.2 | 0.00 | 0.53 | 0.00 | 67 | 1007.8 |
| 20260905092629 | 17 | 236 | 12.9 | 25.7 | 0.00 | 0.53 | 0.00 | 68 | 1007.8 |
| 20260905091128 | 17 | 276 | 14.5 | 22.5 | 0.00 | 0.53 | 0.00 | 70 | 1007.8 |
| 20260905085627 | 16 | 248 | 12.9 | 20.9 | 0.00 | 0.53 | 0.00 | 70 | 1007.5 |
| 20260905084126 | 17 | 287 | 14.5 | 25.7 | 0.00 | 0.53 | 0.00 | 69 | 1007.5 |
| 20260905082626 | 16 | 269 | 14.5 | 25.7 | 0.00 | 0.53 | 0.00 | 71 | 1007.5 |
| 20260905081124 | 16 | 258 | 14.5 | 24.1 | 0.00 | 0.53 | 0.00 | 71 | 1007.4 |
| 20260905075623 | 16 | 264 | 14.5 | 25.7 | 0.00 | 0.53 | 0.00 | 73 | 1007.4 |
| 20260905074122 | 16 | 224 | 14.5 | 24.1 | 0.00 | 0.53 | 0.00 | 72 | 1007.1 |
| 20260905072621 | 16 | 227 | 14.5 | 25.7 | 0.00 | 0.53 | 0.00 | 74 | 1007.1 |
| 20260905071121 | 16 | 258 | 12.9 | 22.5 | 0.00 | 0.53 | 0.00 | 76 | 1006.9 |
| 20260905065619 | 16 | 246 | 14.5 | 27.4 | 0.00 | 0.53 | 0.00 | 76 | 1006.7 |
| 20260905064118 | 15 | 246 | 16.1 | 27.4 | 0.00 | 0.53 | 0.00 | 77 | 1006.6 |
| 20260905062617 | 15 | 234 | 14.5 | 27.4 | 0.00 | 0.53 | 0.00 | 77 | 1006.3 |
| 20260905061116 | 15 | 254 | 14.5 | 20.9 | 0.00 | 0.53 | 0.00 | 78 | 1006.2 |
| 20260905055615 | 15 | 262 | 12.9 | 22.5 | 0.00 | 0.53 | 0.00 | 81 | 1006.0 |
| 20260905054114 | 15 | 240 | 11.3 | 19.3 | 0.00 | 0.53 | 0.00 | 82 | 1005.8 |
| 20260905052613 | 14 | 252 | 11.3 | 22.5 | 0.00 | 0.53 | 0.00 | 83 | 1005.7 |
| 20260905051112 | 14 | 258 | 11.3 | 20.9 | 0.00 | 0.53 | 0.00 | 85 | 1005.5 |
| 20260905045611 | 14 | 214 | 11.3 | 19.3 | 0.00 | 0.53 | 0.00 | 85 | 1005.4 |
| 20260905044110 | 14 | 228 | 11.3 | 20.9 | 0.00 | 0.53 | 0.00 | 85 | 1005.2 |
| 20260905042609 | 14 | 240 | 11.3 | 17.7 | 0.00 | 0.53 | 0.00 | 85 | 1005.0 |
| 20260905041108 | 14 | 214 | 11.3 | 19.3 | 0.00 | 0.53 | 0.00 | 86 | 1005.0 |
| 20260905035607 | 13 | 228 | 9.7 | 16.1 | 0.00 | 0.53 | 0.00 | 85 | 1004.9 |
| 20260905034106 | 14 | 240 | 11.3 | 17.7 | 0.00 | 0.53 | 0.00 | 83 | 1004.6 |
| 20260905032605 | 14 | 258 | 9.7 | 17.7 | 0.00 | 0.53 | 0.00 | 83 | 1004.6 |
| 20260905031104 | 13 | 264 | 9.7 | 17.7 | 0.00 | 0.53 | 0.00 | 83 | 1004.4 |
| 20260905025603 | 14 | 252 | 11.3 | 22.5 | 0.00 | 0.53 | 0.00 | 81 | 1004.4 |
| 20260905024102 | 14 | 275 | 11.3 | 17.7 | 0.00 | 0.53 | 0.00 | 81 | 1004.5 |
| 20260905022601 | 14 | 246 | 9.7 | 16.1 | 0.00 | 0.53 | 0.00 | 82 | 1004.4 |
| 20260905021101 | 14 | 264 | 9.7 | 16.1 | 0.00 | 0.53 | 0.00 | 81 | 1004.2 |
| 20260905015600 | 14 | 246 | 9.7 | 17.7 | 0.00 | 0.53 | 0.00 | 81 | 1004.0 |
| 20260905014059 | 14 | 246 | 9.7 | 17.7 | 0.00 | 0.53 | 0.00 | 82 | 1003.9 |
| 20260905012558 | 14 | 248 | 9.7 | 20.9 | 0.00 | 0.53 | 0.00 | 82 | 1003.7 |
| 20260905011057 | 13 | 264 | 9.7 | 16.1 | 0.00 | 0.53 | 0.00 | 83 | 1003.9 |
| 20260905005555 | 14 | 275 | 9.7 | 16.1 | 0.00 | 0.53 | 0.00 | 84 | 1003.7 |
| 20260905004054 | 14 | 264 | 11.3 | 20.9 | 0.00 | 0.53 | 0.00 | 84 | 1003.5 |
| 20260905002554 | 14 | 269 | 11.3 | 17.7 | 0.00 | 0.53 | 0.00 | 84 | 1003.4 |
| 20260905001053 | 15 | 282 | 9.7 | 19.3 | 0.05 | 0.53 | 0.00 | 85 | 1003.1 |
| 20260904235552 | 15 | 252 | 11.3 | 22.5 | 0.15 | 0.53 | 0.00 | 84 | 1002.9 |
| 20260904234051 | 15 | 228 | 16.1 | 27.4 | 0.15 | 0.53 | 0.00 | 83 | 1002.5 |
| 20260904232550 | 15 | 254 | 11.3 | 20.9 | 0.15 | 0.53 | 0.00 | 92 | 1002.3 |
| 20260904225544 | 16 | 258 | 9.7 | 17.7 | 0.00 | 0.38 | 0.00 | 88 | 1001.5 |
| 20260904224043 | 16 | 234 | 9.7 | 19.3 | 0.00 | 0.38 | 0.00 | 88 | 1001.3 |